This is the latest recevied weather packets stored in our database for station/object EA3FHP. If no packets are shown the sender has not sent any weather packets the latest 10 day(s).
| Time | Temp. | Humidity | Pressure | Rain* | Wind** | Luminosity | Snow |
|---|---|---|---|---|---|---|---|
| 1777192804 | 16.67° C | 74% | 1021.1 hPa | 0 mm | - | - | - |
| 1777192203 | 16.11° C | 76% | 1021.3 hPa | 0 mm | - | - | - |
| 1777191603 | 16.11° C | 77% | 1021.1 hPa | 0 mm | - | - | - |
| 1777191003 | 15° C | 79% | 1021.2 hPa | 0 mm | - | - | - |
| 1777190403 | 15° C | 80% | 1021.1 hPa | 0 mm | - | - | - |
| 1777189804 | 15° C | 78% | 1020.9 hPa | 0 mm | - | - | - |
| 1777189203 | 14.44° C | 80% | 1021.2 hPa | 0 mm | - | - | - |
| 1777188604 | 13.33° C | 83% | 1020.9 hPa | 0 mm | - | - | - |
| 1777188003 | 13.33° C | 83% | 1020.9 hPa | 0 mm | - | - | - |
| 1777187403 | 12.22° C | 85% | 1021.1 hPa | 0 mm | - | - | - |
| 1777186806 | 12.78° C | 87% | 1021.3 hPa | 0 mm | - | - | - |
| 1777186203 | 11.11° C | 93% | 1021.2 hPa | 0 mm | - | - | - |
| 1777185603 | 10.56° C | 93% | 1021.2 hPa | 0 mm | - | - | - |
| 1777185003 | 10.56° C | 93% | 1021.2 hPa | 0 mm | - | - | - |
| 1777184404 | 10° C | 93% | 1021.2 hPa | 0 mm | - | - | - |
| 1777183803 | 10° C | 93% | 1021.2 hPa | 0 mm | - | - | - |
| 1777183204 | 9.44° C | 93% | 1021.1 hPa | 0 mm | - | - | - |
| 1777182603 | 9.44° C | 93% | 1020.6 hPa | 0 mm | - | - | - |
| 1777182003 | 8.33° C | 92% | 1020.6 hPa | 0 mm | - | - | - |
| 1777181403 | 8.33° C | 92% | 1020.6 hPa | 0 mm | - | - | - |
| 1777180803 | 8.33° C | 92% | 1020.3 hPa | 0 mm | - | - | - |
| 1777180204 | 8.33° C | 92% | 1020.3 hPa | 0 mm | - | - | - |
| 1777179604 | 8.33° C | 92% | 1020.2 hPa | 0 mm | - | - | - |
| 1777179003 | 8.33° C | 92% | 1020.2 hPa | 0 mm | - | - | - |
| 1777151403 | 12.22° C | 84% | 1020.1 hPa | 0 mm | - | - | - |
* Rain latest hour (hover to see other rain measurements)
** Current wind speed in m/s (hover to see current wind gust speed)